sensor_id;sensor_type;location;lat;lon;timestamp;pressure;altitude;pressure_sealevel;temperature;humidity
41230;BME280;26964;50.428;19.218;2023-02-03T00:00:50;1024.5;;;-0.9;81.6
41230;BME280;26964;50.428;19.218;2023-02-03T00:05:50;1024.6;;;-0.9;81.5
41230;BME280;26964;50.428;19.218;2023-02-03T00:10:50;1024.8;;;-0.9;81.5
41230;BME280;26964;50.428;19.218;2023-02-03T00:15:50;1024.8;;;-0.9;81.5
41230;BME280;26964;50.428;19.218;2023-02-03T00:20:50;1024.6;;;-0.9;81.4
41230;BME280;26964;50.428;19.218;2023-02-03T00:25:50;1024.6;;;-0.9;81.4
41230;BME280;26964;50.428;19.218;2023-02-03T00:30:50;1024.7;;;-0.9;81.3
41230;BME280;26964;50.428;19.218;2023-02-03T00:35:50;1024.8;;;-0.9;81.3
41230;BME280;26964;50.428;19.218;2023-02-03T00:40:51;1024.9;;;-0.9;81.3
41230;BME280;26964;50.428;19.218;2023-02-03T00:45:49;1025.0;;;-0.9;81.3
41230;BME280;26964;50.428;19.218;2023-02-03T00:50:50;1025.0;;;-0.9;81.4
41230;BME280;26964;50.428;19.218;2023-02-03T00:55:50;1025.0;;;-0.9;81.4
41230;BME280;26964;50.428;19.218;2023-02-03T01:00:50;1024.8;;;-0.9;81.4
41230;BME280;26964;50.428;19.218;2023-02-03T01:05:50;1024.9;;;-0.9;81.4
41230;BME280;26964;50.428;19.218;2023-02-03T01:10:50;1024.8;;;-0.9;81.5
41230;BME280;26964;50.428;19.218;2023-02-03T01:15:50;1024.8;;;-0.9;81.4
41230;BME280;26964;50.428;19.218;2023-02-03T01:20:49;1024.8;;;-0.9;81.4
41230;BME280;26964;50.428;19.218;2023-02-03T01:25:50;1024.6;;;-0.9;81.3
41230;BME280;26964;50.428;19.218;2023-02-03T01:30:50;1024.8;;;-0.9;81.3
41230;BME280;26964;50.428;19.218;2023-02-03T01:35:49;1024.7;;;-1.0;81.3
41230;BME280;26964;50.428;19.218;2023-02-03T01:40:50;1024.6;;;-1.1;81.2
41230;BME280;26964;50.428;19.218;2023-02-03T01:45:49;1024.7;;;-1.1;81.2
41230;BME280;26964;50.428;19.218;2023-02-03T01:50:49;1024.7;;;-1.1;81.3
41230;BME280;26964;50.428;19.218;2023-02-03T01:55:50;1024.6;;;-1.2;81.2
41230;BME280;26964;50.428;19.218;2023-02-03T02:00:50;1024.6;;;-1.2;81.2
41230;BME280;26964;50.428;19.218;2023-02-03T02:05:54;1024.6;;;-1.3;81.1
41230;BME280;26964;50.428;19.218;2023-02-03T02:10:49;1024.5;;;-1.3;81.1
41230;BME280;26964;50.428;19.218;2023-02-03T02:15:53;1024.6;;;-1.4;81.1
41230;BME280;26964;50.428;19.218;2023-02-03T02:35:55;1024.3;;;-1.5;81.1
41230;BME280;26964;50.428;19.218;2023-02-03T02:40:53;1024.3;;;-1.5;80.9
41230;BME280;26964;50.428;19.218;2023-02-03T02:45:51;1024.2;;;-1.5;81.0
41230;BME280;26964;50.428;19.218;2023-02-03T02:50:54;1024.1;;;-1.6;80.9
41230;BME280;26964;50.428;19.218;2023-02-03T02:55:51;1024.0;;;-1.6;80.9
41230;BME280;26964;50.428;19.218;2023-02-03T03:00:50;1024.1;;;-1.6;80.9
41230;BME280;26964;50.428;19.218;2023-02-03T03:05:52;1024.0;;;-1.6;80.9
41230;BME280;26964;50.428;19.218;2023-02-03T03:10:50;1024.2;;;-1.7;80.9
41230;BME280;26964;50.428;19.218;2023-02-03T03:15:50;1024.3;;;-1.7;80.9
41230;BME280;26964;50.428;19.218;2023-02-03T03:20:50;1024.4;;;-1.7;80.8
41230;BME280;26964;50.428;19.218;2023-02-03T03:25:53;1024.4;;;-1.8;80.8
41230;BME280;26964;50.428;19.218;2023-02-03T03:30:49;1024.2;;;-1.8;80.9
41230;BME280;26964;50.428;19.218;2023-02-03T03:35:55;1024.1;;;-1.8;80.9
41230;BME280;26964;50.428;19.218;2023-02-03T03:40:53;1024.1;;;-1.8;80.9
41230;BME280;26964;50.428;19.218;2023-02-03T03:45:53;1024.0;;;-1.8;80.8
41230;BME280;26964;50.428;19.218;2023-02-03T03:50:54;1023.8;;;-1.8;80.8
41230;BME280;26964;50.428;19.218;2023-02-03T03:55:51;1023.7;;;-1.8;80.8
41230;BME280;26964;50.428;19.218;2023-02-03T04:00:50;1023.6;;;-1.9;80.7
41230;BME280;26964;50.428;19.218;2023-02-03T04:05:49;1023.7;;;-1.9;80.7
41230;BME280;26964;50.428;19.218;2023-02-03T04:10:50;1023.7;;;-1.9;80.6
41230;BME280;26964;50.428;19.218;2023-02-03T04:15:50;1023.8;;;-2.0;80.6
41230;BME280;26964;50.428;19.218;2023-02-03T04:20:50;1023.7;;;-2.0;80.6
41230;BME280;26964;50.428;19.218;2023-02-03T04:25:50;1023.5;;;-2.0;80.6
41230;BME280;26964;50.428;19.218;2023-02-03T04:30:50;1023.5;;;-2.1;80.6
41230;BME280;26964;50.428;19.218;2023-02-03T04:35:49;1023.5;;;-2.1;80.6
41230;BME280;26964;50.428;19.218;2023-02-03T04:40:50;1023.4;;;-2.1;80.6
41230;BME280;26964;50.428;19.218;2023-02-03T04:45:49;1023.4;;;-2.1;80.7
41230;BME280;26964;50.428;19.218;2023-02-03T04:50:49;1023.2;;;-2.1;80.7
41230;BME280;26964;50.428;19.218;2023-02-03T04:55:50;1023.2;;;-2.2;80.7
41230;BME280;26964;50.428;19.218;2023-02-03T05:00:50;1023.2;;;-2.2;80.6
41230;BME280;26964;50.428;19.218;2023-02-03T05:05:49;1023.0;;;-2.2;80.6
41230;BME280;26964;50.428;19.218;2023-02-03T05:10:50;1023.0;;;-2.2;80.7
41230;BME280;26964;50.428;19.218;2023-02-03T05:15:50;1022.8;;;-2.3;80.7
41230;BME280;26964;50.428;19.218;2023-02-03T05:20:49;1022.6;;;-2.3;80.7
41230;BME280;26964;50.428;19.218;2023-02-03T05:25:49;1022.5;;;-2.3;80.7
41230;BME280;26964;50.428;19.218;2023-02-03T05:30:49;1022.5;;;-2.3;80.7
41230;BME280;26964;50.428;19.218;2023-02-03T05:35:49;1022.5;;;-2.3;80.7
41230;BME280;26964;50.428;19.218;2023-02-03T05:40:49;1022.3;;;-2.3;80.7
41230;BME280;26964;50.428;19.218;2023-02-03T05:45:50;1022.5;;;-2.3;80.7
41230;BME280;26964;50.428;19.218;2023-02-03T05:50:49;1022.3;;;-2.3;80.8
41230;BME280;26964;50.428;19.218;2023-02-03T05:55:49;1022.1;;;-2.3;80.7
41230;BME280;26964;50.428;19.218;2023-02-03T06:00:50;1022.1;;;-2.3;80.8
41230;BME280;26964;50.428;19.218;2023-02-03T06:05:49;1022.1;;;-2.3;80.8
41230;BME280;26964;50.428;19.218;2023-02-03T06:10:49;1022.0;;;-2.3;80.8
41230;BME280;26964;50.428;19.218;2023-02-03T06:15:50;1021.8;;;-2.3;80.9
41230;BME280;26964;50.428;19.218;2023-02-03T06:20:49;1021.8;;;-2.3;80.9
41230;BME280;26964;50.428;19.218;2023-02-03T06:25:49;1021.8;;;-2.3;80.9
41230;BME280;26964;50.428;19.218;2023-02-03T06:30:49;1021.8;;;-2.3;80.9
41230;BME280;26964;50.428;19.218;2023-02-03T06:35:49;1021.7;;;-2.2;81.0
41230;BME280;26964;50.428;19.218;2023-02-03T06:40:49;1021.6;;;-2.2;81.0
41230;BME280;26964;50.428;19.218;2023-02-03T06:45:50;1021.6;;;-2.2;81.0
41230;BME280;26964;50.428;19.218;2023-02-03T06:50:49;1021.5;;;-2.1;80.9
41230;BME280;26964;50.428;19.218;2023-02-03T06:55:50;1021.5;;;-2.1;81.0
41230;BME280;26964;50.428;19.218;2023-02-03T07:00:50;1021.4;;;-2.1;81.0
41230;BME280;26964;50.428;19.218;2023-02-03T07:05:49;1021.3;;;-2.0;81.0
41230;BME280;26964;50.428;19.218;2023-02-03T07:10:53;1021.4;;;-2.0;81.0
41230;BME280;26964;50.428;19.218;2023-02-03T07:15:49;1021.3;;;-1.9;81.0
41230;BME280;26964;50.428;19.218;2023-02-03T07:20:49;1021.2;;;-1.9;81.0
41230;BME280;26964;50.428;19.218;2023-02-03T07:25:50;1021.0;;;-1.9;80.9
41230;BME280;26964;50.428;19.218;2023-02-03T07:30:49;1020.9;;;-1.8;80.9
41230;BME280;26964;50.428;19.218;2023-02-03T07:35:51;1020.8;;;-1.7;80.9
41230;BME280;26964;50.428;19.218;2023-02-03T07:40:50;1020.7;;;-1.7;80.9
41230;BME280;26964;50.428;19.218;2023-02-03T07:45:49;1020.7;;;-1.6;80.8
41230;BME280;26964;50.428;19.218;2023-02-03T07:50:49;1020.6;;;-1.6;80.8
41230;BME280;26964;50.428;19.218;2023-02-03T07:55:49;1020.4;;;-1.5;80.8
41230;BME280;26964;50.428;19.218;2023-02-03T08:00:49;1020.3;;;-1.5;80.8
41230;BME280;26964;50.428;19.218;2023-02-03T08:05:49;1020.3;;;-1.4;80.7
41230;BME280;26964;50.428;19.218;2023-02-03T08:10:50;1020.2;;;-1.4;80.7
41230;BME280;26964;50.428;19.218;2023-02-03T08:15:48;1020.0;;;-1.3;80.6
41230;BME280;26964;50.428;19.218;2023-02-03T08:20:49;1020.0;;;-1.2;80.6
41230;BME280;26964;50.428;19.218;2023-02-03T08:25:50;1019.8;;;-1.1;80.7
41230;BME280;26964;50.428;19.218;2023-02-03T08:30:49;1019.7;;;-1.0;80.6
41230;BME280;26964;50.428;19.218;2023-02-03T08:35:49;1019.7;;;-0.9;80.5
41230;BME280;26964;50.428;19.218;2023-02-03T08:40:49;1019.6;;;-0.8;80.5
41230;BME280;26964;50.428;19.218;2023-02-03T08:45:49;1019.5;;;-0.7;80.4
41230;BME280;26964;50.428;19.218;2023-02-03T08:50:49;1019.4;;;-0.6;80.4
41230;BME280;26964;50.428;19.218;2023-02-03T08:55:48;1019.3;;;-0.5;80.3
41230;BME280;26964;50.428;19.218;2023-02-03T09:00:49;1019.4;;;-0.5;80.2
41230;BME280;26964;50.428;19.218;2023-02-03T09:05:49;1019.3;;;-0.5;80.2
41230;BME280;26964;50.428;19.218;2023-02-03T09:10:49;1019.1;;;-0.5;80.2
41230;BME280;26964;50.428;19.218;2023-02-03T09:15:49;1019.0;;;-0.4;80.2
41230;BME280;26964;50.428;19.218;2023-02-03T09:20:49;1019.0;;;-0.3;80.2
41230;BME280;26964;50.428;19.218;2023-02-03T09:25:48;1018.9;;;-0.2;80.2
41230;BME280;26964;50.428;19.218;2023-02-03T09:30:49;1018.7;;;-0.2;80.2
41230;BME280;26964;50.428;19.218;2023-02-03T09:35:51;1018.6;;;-0.2;80.4
41230;BME280;26964;50.428;19.218;2023-02-03T09:40:53;1018.4;;;-0.2;80.5
41230;BME280;26964;50.428;19.218;2023-02-03T09:45:48;1018.2;;;-0.2;80.6
41230;BME280;26964;50.428;19.218;2023-02-03T09:50:49;1018.1;;;-0.3;80.7
41230;BME280;26964;50.428;19.218;2023-02-03T09:55:49;1017.8;;;-0.2;80.8
41230;BME280;26964;50.428;19.218;2023-02-03T10:00:50;1017.7;;;-0.2;81.0
41230;BME280;26964;50.428;19.218;2023-02-03T10:10:53;1017.2;;;-0.2;80.9
41230;BME280;26964;50.428;19.218;2023-02-03T10:20:50;1016.9;;;-0.3;81.1
41230;BME280;26964;50.428;19.218;2023-02-03T10:25:51;1016.7;;;-0.3;81.2
41230;BME280;26964;50.428;19.218;2023-02-03T10:30:51;1016.5;;;-0.4;81.4
41230;BME280;26964;50.428;19.218;2023-02-03T10:35:51;1016.3;;;-0.4;81.4
41230;BME280;26964;50.428;19.218;2023-02-03T10:40:49;1016.1;;;-0.4;81.5
41230;BME280;26964;50.428;19.218;2023-02-03T10:45:48;1016.0;;;-0.4;81.5
41230;BME280;26964;50.428;19.218;2023-02-03T10:50:49;1015.7;;;-0.4;81.5
41230;BME280;26964;50.428;19.218;2023-02-03T10:55:50;1015.7;;;-0.5;81.6
41230;BME280;26964;50.428;19.218;2023-02-03T11:00:53;1015.5;;;-0.6;81.6
41230;BME280;26964;50.428;19.218;2023-02-03T11:10:49;1015.2;;;-0.6;81.9
41230;BME280;26964;50.428;19.218;2023-02-03T11:15:52;1014.9;;;-0.6;81.9
41230;BME280;26964;50.428;19.218;2023-02-03T11:20:49;1014.7;;;-0.6;82.0
41230;BME280;26964;50.428;19.218;2023-02-03T11:25:49;1014.6;;;-0.6;82.0
41230;BME280;26964;50.428;19.218;2023-02-03T11:30:53;1014.3;;;-0.6;82.1
41230;BME280;26964;50.428;19.218;2023-02-03T11:35:52;1014.2;;;-0.6;82.2
41230;BME280;26964;50.428;19.218;2023-02-03T11:45:50;1013.9;;;-0.6;82.3
41230;BME280;26964;50.428;19.218;2023-02-03T11:50:51;1013.7;;;-0.6;82.3
41230;BME280;26964;50.428;19.218;2023-02-03T12:00:54;1013.3;;;-0.5;82.4
41230;BME280;26964;50.428;19.218;2023-02-03T13:36:00;1010.3;;;-0.1;83.0
41230;BME280;26964;50.428;19.218;2023-02-03T13:40:58;1010.1;;;-0.1;83.1
41230;BME280;26964;50.428;19.218;2023-02-03T13:45:52;1009.9;;;-0.1;83.2
41230;BME280;26964;50.428;19.218;2023-02-03T13:55:54;1009.6;;;-0.1;83.2
41230;BME280;26964;50.428;19.218;2023-02-03T14:05:53;1009.4;;;-0.2;83.4
41230;BME280;26964;50.428;19.218;2023-02-03T14:20:56;1009.1;;;-0.1;83.5
41230;BME280;26964;50.428;19.218;2023-02-03T14:25:54;1009.0;;;-0.1;83.6
41230;BME280;26964;50.428;19.218;2023-02-03T14:35:52;1008.8;;;-0.1;83.6
41230;BME280;26964;50.428;19.218;2023-02-03T14:40:54;1008.8;;;-0.1;83.6
41230;BME280;26964;50.428;19.218;2023-02-03T14:56:00;1008.7;;;-0.1;83.8
41230;BME280;26964;50.428;19.218;2023-02-03T15:00:52;1008.9;;;-0.0;83.9
41230;BME280;26964;50.428;19.218;2023-02-03T15:05:56;1008.9;;;0.0;84.1
41230;BME280;26964;50.428;19.218;2023-02-03T15:10:52;1008.7;;;0.0;84.0
41230;BME280;26964;50.428;19.218;2023-02-03T15:15:53;1008.6;;;0.0;84.0
41230;BME280;26964;50.428;19.218;2023-02-03T15:20:54;1008.6;;;0.0;84.0
41230;BME280;26964;50.428;19.218;2023-02-03T15:25:53;1008.6;;;0.1;84.1
41230;BME280;26964;50.428;19.218;2023-02-03T15:30:57;1008.7;;;0.1;84.1
41230;BME280;26964;50.428;19.218;2023-02-03T15:35:56;1008.7;;;0.1;84.1
41230;BME280;26964;50.428;19.218;2023-02-03T15:40:53;1008.7;;;0.2;84.1
41230;BME280;26964;50.428;19.218;2023-02-03T15:45:57;1008.9;;;0.2;84.2
41230;BME280;26964;50.428;19.218;2023-02-03T15:50:56;1008.9;;;0.2;84.2
41230;BME280;26964;50.428;19.218;2023-02-03T15:55:55;1009.0;;;0.2;84.2
41230;BME280;26964;50.428;19.218;2023-02-03T16:00:53;1009.1;;;0.3;84.3
41230;BME280;26964;50.428;19.218;2023-02-03T16:05:52;1008.9;;;0.4;84.5
41230;BME280;26964;50.428;19.218;2023-02-03T16:10:52;1009.0;;;0.5;84.7
41230;BME280;26964;50.428;19.218;2023-02-03T16:15:56;1009.0;;;0.7;85.5
41230;BME280;26964;50.428;19.218;2023-02-03T16:20:52;1009.0;;;0.8;85.0
41230;BME280;26964;50.428;19.218;2023-02-03T16:30:54;1008.9;;;1.0;85.0
41230;BME280;26964;50.428;19.218;2023-02-03T16:35:57;1008.8;;;1.1;85.1
41230;BME280;26964;50.428;19.218;2023-02-03T16:40:53;1008.9;;;1.2;85.1
41230;BME280;26964;50.428;19.218;2023-02-03T16:45:55;1009.0;;;1.3;85.3
41230;BME280;26964;50.428;19.218;2023-02-03T16:50:53;1009.0;;;1.4;85.3
41230;BME280;26964;50.428;19.218;2023-02-03T16:55:54;1009.1;;;1.4;85.4
41230;BME280;26964;50.428;19.218;2023-02-03T17:00:52;1009.2;;;1.5;85.4
41230;BME280;26964;50.428;19.218;2023-02-03T17:05:53;1009.3;;;1.6;85.6
41230;BME280;26964;50.428;19.218;2023-02-03T17:10:52;1009.4;;;1.7;85.7
41230;BME280;26964;50.428;19.218;2023-02-03T17:15:53;1009.4;;;1.7;85.9
41230;BME280;26964;50.428;19.218;2023-02-03T17:20:53;1009.4;;;1.8;85.5
41230;BME280;26964;50.428;19.218;2023-02-03T17:25:52;1009.4;;;1.7;85.3
41230;BME280;26964;50.428;19.218;2023-02-03T17:30:54;1009.5;;;1.7;85.3
41230;BME280;26964;50.428;19.218;2023-02-03T17:40:53;1009.5;;;1.7;85.4
41230;BME280;26964;50.428;19.218;2023-02-03T17:45:53;1009.6;;;1.7;85.3
41230;BME280;26964;50.428;19.218;2023-02-03T17:50:52;1009.5;;;1.7;85.3
41230;BME280;26964;50.428;19.218;2023-02-03T17:55:52;1009.6;;;1.7;85.3
41230;BME280;26964;50.428;19.218;2023-02-03T18:00:52;1009.8;;;1.8;85.6
41230;BME280;26964;50.428;19.218;2023-02-03T18:05:52;1009.9;;;1.8;85.7
41230;BME280;26964;50.428;19.218;2023-02-03T18:10:53;1009.9;;;1.8;85.7
41230;BME280;26964;50.428;19.218;2023-02-03T18:15:54;1010.0;;;1.8;85.5
41230;BME280;26964;50.428;19.218;2023-02-03T18:20:52;1010.2;;;1.8;85.5
41230;BME280;26964;50.428;19.218;2023-02-03T18:25:52;1010.1;;;1.8;85.5
41230;BME280;26964;50.428;19.218;2023-02-03T18:30:57;1010.3;;;1.8;85.4
41230;BME280;26964;50.428;19.218;2023-02-03T18:35:52;1010.3;;;1.8;85.5
41230;BME280;26964;50.428;19.218;2023-02-03T18:40:53;1010.3;;;1.8;85.4
41230;BME280;26964;50.428;19.218;2023-02-03T18:45:53;1010.3;;;1.8;85.6
41230;BME280;26964;50.428;19.218;2023-02-03T18:50:53;1010.3;;;1.8;85.6
41230;BME280;26964;50.428;19.218;2023-02-03T18:55:52;1010.4;;;1.8;85.6
41230;BME280;26964;50.428;19.218;2023-02-03T19:00:53;1010.4;;;1.9;85.7
41230;BME280;26964;50.428;19.218;2023-02-03T19:05:52;1010.4;;;1.8;85.7
41230;BME280;26964;50.428;19.218;2023-02-03T19:10:54;1010.5;;;1.8;85.8
41230;BME280;26964;50.428;19.218;2023-02-03T19:15:52;1010.4;;;1.8;85.5
41230;BME280;26964;50.428;19.218;2023-02-03T19:20:52;1010.4;;;1.7;85.5
41230;BME280;26964;50.428;19.218;2023-02-03T19:25:52;1010.6;;;1.6;85.4
41230;BME280;26964;50.428;19.218;2023-02-03T19:30:53;1010.6;;;1.5;85.4
41230;BME280;26964;50.428;19.218;2023-02-03T19:35:53;1010.5;;;1.5;85.4
41230;BME280;26964;50.428;19.218;2023-02-03T19:40:53;1010.6;;;1.4;85.6
41230;BME280;26964;50.428;19.218;2023-02-03T19:45:57;1010.5;;;1.4;85.6
41230;BME280;26964;50.428;19.218;2023-02-03T19:50:52;1010.5;;;1.4;85.6
41230;BME280;26964;50.428;19.218;2023-02-03T19:55:52;1010.5;;;1.3;85.6
41230;BME280;26964;50.428;19.218;2023-02-03T20:00:56;1010.6;;;1.3;85.6
41230;BME280;26964;50.428;19.218;2023-02-03T20:05:52;1010.5;;;1.2;85.7
41230;BME280;26964;50.428;19.218;2023-02-03T20:10:52;1010.5;;;1.1;85.5
41230;BME280;26964;50.428;19.218;2023-02-03T20:15:53;1010.5;;;1.1;85.5
41230;BME280;26964;50.428;19.218;2023-02-03T20:20:57;1010.5;;;1.0;85.5
41230;BME280;26964;50.428;19.218;2023-02-03T20:25:59;1010.5;;;0.9;85.6
41230;BME280;26964;50.428;19.218;2023-02-03T20:30:58;1010.5;;;0.9;85.7
41230;BME280;26964;50.428;19.218;2023-02-03T20:35:58;1010.6;;;1.0;85.9
41230;BME280;26964;50.428;19.218;2023-02-03T20:40:57;1010.6;;;1.0;86.0
41230;BME280;26964;50.428;19.218;2023-02-03T20:45:56;1010.6;;;1.1;86.1
41230;BME280;26964;50.428;19.218;2023-02-03T20:50:56;1010.4;;;1.1;86.1
41230;BME280;26964;50.428;19.218;2023-02-03T20:55:58;1010.4;;;1.1;86.2
41230;BME280;26964;50.428;19.218;2023-02-03T21:00:57;1010.4;;;1.2;86.0
41230;BME280;26964;50.428;19.218;2023-02-03T21:05:58;1010.4;;;1.2;86.0
41230;BME280;26964;50.428;19.218;2023-02-03T21:10:57;1010.5;;;1.2;86.1
41230;BME280;26964;50.428;19.218;2023-02-03T21:15:58;1010.6;;;1.2;86.1
41230;BME280;26964;50.428;19.218;2023-02-03T21:20:57;1010.5;;;1.2;86.2
41230;BME280;26964;50.428;19.218;2023-02-03T21:25:57;1010.6;;;1.3;86.1
41230;BME280;26964;50.428;19.218;2023-02-03T21:30:58;1010.5;;;1.3;86.1
41230;BME280;26964;50.428;19.218;2023-02-03T21:35:57;1010.6;;;1.3;86.2
41230;BME280;26964;50.428;19.218;2023-02-03T21:40:56;1010.4;;;1.3;86.2
41230;BME280;26964;50.428;19.218;2023-02-03T21:45:57;1010.4;;;1.3;86.2
41230;BME280;26964;50.428;19.218;2023-02-03T21:50:59;1010.4;;;1.4;86.2
41230;BME280;26964;50.428;19.218;2023-02-03T22:10:56;1010.3;;;1.4;86.4
41230;BME280;26964;50.428;19.218;2023-02-03T22:16:00;1010.3;;;1.5;86.2
41230;BME280;26964;50.428;19.218;2023-02-03T22:20:56;1010.2;;;1.5;86.5
41230;BME280;26964;50.428;19.218;2023-02-03T22:25:56;1010.3;;;1.5;86.4
41230;BME280;26964;50.428;19.218;2023-02-03T22:30:58;1010.4;;;1.5;86.5
41230;BME280;26964;50.428;19.218;2023-02-03T22:36:00;1010.3;;;1.5;86.4
41230;BME280;26964;50.428;19.218;2023-02-03T22:40:57;1010.3;;;1.6;86.3
41230;BME280;26964;50.428;19.218;2023-02-03T22:46:01;1010.2;;;1.6;86.4
41230;BME280;26964;50.428;19.218;2023-02-03T22:50:59;1010.3;;;1.6;86.5
41230;BME280;26964;50.428;19.218;2023-02-03T22:55:56;1010.2;;;1.6;86.5
41230;BME280;26964;50.428;19.218;2023-02-03T23:00:56;1010.2;;;1.7;86.7
41230;BME280;26964;50.428;19.218;2023-02-03T23:05:56;1010.2;;;1.7;86.6
41230;BME280;26964;50.428;19.218;2023-02-03T23:10:56;1010.1;;;1.7;86.8
41230;BME280;26964;50.428;19.218;2023-02-03T23:15:56;1010.1;;;1.8;86.8
41230;BME280;26964;50.428;19.218;2023-02-03T23:20:56;1009.9;;;1.8;86.8
41230;BME280;26964;50.428;19.218;2023-02-03T23:25:56;1009.9;;;1.8;86.8
41230;BME280;26964;50.428;19.218;2023-02-03T23:30:57;1009.8;;;1.7;86.8
41230;BME280;26964;50.428;19.218;2023-02-03T23:35:56;1009.8;;;1.8;86.8
41230;BME280;26964;50.428;19.218;2023-02-03T23:41:11;1009.7;;;1.7;86.7
41230;BME280;26964;50.428;19.218;2023-02-03T23:45:58;1009.7;;;1.7;86.7
41230;BME280;26964;50.428;19.218;2023-02-03T23:50:56;1009.7;;;1.7;86.8
41230;BME280;26964;50.428;19.218;2023-02-03T23:55:56;1009.7;;;1.7;87.0
